This is the latest recevied weather packets stored in our database for station/object AB1AU. If no packets are shown the sender has not sent any weather packets the latest 1 day(s).
| Time | Temp. | Humidity | Pressure | Rain* | Wind** | Luminosity | Snow |
|---|---|---|---|---|---|---|---|
| 1777989535 | 18.89° C | 50% | 1008.1 hPa | 0 mm | 1.79 m/s, 168° | 251 W/m² | - |
| 1777989231 | 18.89° C | 51% | 1008.1 hPa | 0 mm | 0.45 m/s, 217° | 217 W/m² | - |
| 1777988927 | 18.89° C | 51% | 1007.7 hPa | 0 mm | 1.34 m/s, 153° | 252 W/m² | - |
| 1777988624 | 18.33° C | 51% | 1007.8 hPa | 0 mm | 1.79 m/s, 240° | 101 W/m² | - |
| 1777988321 | 17.78° C | 52% | 1007.9 hPa | 0 mm | 0.89 m/s, 161° | 109 W/m² | - |
| 1777988018 | 17.78° C | 52% | 1007.8 hPa | 0 mm | 0.89 m/s, 120° | 206 W/m² | - |
| 1777987713 | 17.22° C | 55% | 1007.7 hPa | 0 mm | 1.34 m/s, 144° | 174 W/m² | - |
| 1777987411 | 17.78° C | 53% | 1008 hPa | 0 mm | 1.34 m/s, 189° | 451 W/m² | - |
| 1777987108 | 17.78° C | 53% | 1008.1 hPa | 0 mm | 1.34 m/s, 233° | 338 W/m² | - |
| 1777986805 | 17.22° C | 55% | 1008.1 hPa | 0 mm | 0 m/s | 309 W/m² | - |
| 1777986503 | 17.22° C | 55% | 1008.1 hPa | 0 mm | 1.34 m/s, 155° | 184 W/m² | - |
| 1777986201 | 16.67° C | 56% | 1008.3 hPa | 0 mm | 1.34 m/s, 245° | 264 W/m² | - |
| 1777985898 | 16.67° C | 56% | 1008.3 hPa | 0 mm | 0.45 m/s, 195° | 160 W/m² | - |
| 1777985595 | 16.67° C | 56% | 1008.3 hPa | 0 mm | 1.34 m/s, 217° | 197 W/m² | - |
| 1777985291 | 16.11° C | 56% | 1008.3 hPa | 0 mm | 1.34 m/s, 151° | 237 W/m² | - |
| 1777984988 | 16.11° C | 57% | 1008.3 hPa | 0 mm | 2.24 m/s, 150° | 233 W/m² | - |
| 1777984684 | 15.56° C | 58% | 1008.4 hPa | 0 mm | 0.89 m/s, 209° | 318 W/m² | - |
| 1777984381 | 15.56° C | 59% | 1008.2 hPa | 0 mm | 1.79 m/s, 146° | 266 W/m² | - |
| 1777984077 | 15.56° C | 60% | 1008.4 hPa | 0 mm | 0.89 m/s, 240° | 272 W/m² | - |
| 1777983775 | 15° C | 61% | 1008.5 hPa | 0 mm | 0.45 m/s, 189° | 187 W/m² | - |
| 1777983471 | 15° C | 62% | 1008.8 hPa | 0 mm | 0 m/s | 202 W/m² | - |
| 1777983168 | 15° C | 61% | 1008.9 hPa | 0 mm | 1.34 m/s, 211° | 168 W/m² | - |
| 1777982864 | 14.44° C | 62% | 1008.7 hPa | 0 mm | 0.89 m/s, 145° | 283 W/m² | - |
| 1777982560 | 14.44° C | 63% | 1008.5 hPa | 0 mm | 1.34 m/s, 161° | 220 W/m² | - |
| 1777982259 | 13.89° C | 64% | 1008.8 hPa | 0 mm | 1.34 m/s, 213° | 229 W/m² | - |
* Rain latest hour (hover to see other rain measurements)
** Current wind speed in m/s (hover to see current wind gust speed)